sensor_id;sensor_type;location;lat;lon;timestamp;temperature;humidity
18041;DHT22;9145;48.588;9.250;2023-07-24T00:00:40;20.10;99.90
18041;DHT22;9145;48.588;9.250;2023-07-24T00:03:07;20.10;99.90
18041;DHT22;9145;48.588;9.250;2023-07-24T00:05:34;20.00;99.90
18041;DHT22;9145;48.588;9.250;2023-07-24T00:08:03;20.00;99.90
18041;DHT22;9145;48.588;9.250;2023-07-24T00:10:30;20.00;99.90
18041;DHT22;9145;48.588;9.250;2023-07-24T00:12:57;20.00;99.90
18041;DHT22;9145;48.588;9.250;2023-07-24T00:15:23;20.10;99.90
18041;DHT22;9145;48.588;9.250;2023-07-24T00:17:50;20.10;99.90
18041;DHT22;9145;48.588;9.250;2023-07-24T00:20:17;20.20;99.90
18041;DHT22;9145;48.588;9.250;2023-07-24T00:22:44;20.30;99.90
18041;DHT22;9145;48.588;9.250;2023-07-24T00:25:12;20.30;99.90
18041;DHT22;9145;48.588;9.250;2023-07-24T00:27:39;20.40;99.90
18041;DHT22;9145;48.588;9.250;2023-07-24T00:30:07;20.40;99.90
18041;DHT22;9145;48.588;9.250;2023-07-24T00:32:34;20.30;99.90
18041;DHT22;9145;48.588;9.250;2023-07-24T00:35:01;20.20;99.90
18041;DHT22;9145;48.588;9.250;2023-07-24T00:37:27;20.00;99.90
18041;DHT22;9145;48.588;9.250;2023-07-24T00:39:54;19.90;99.90
18041;DHT22;9145;48.588;9.250;2023-07-24T00:42:22;19.90;99.90
18041;DHT22;9145;48.588;9.250;2023-07-24T00:44:49;19.90;99.90
18041;DHT22;9145;48.588;9.250;2023-07-24T00:47:16;19.90;99.90
18041;DHT22;9145;48.588;9.250;2023-07-24T00:49:44;20.00;99.90
18041;DHT22;9145;48.588;9.250;2023-07-24T00:52:11;20.00;99.90
18041;DHT22;9145;48.588;9.250;2023-07-24T00:54:39;19.90;99.90
18041;DHT22;9145;48.588;9.250;2023-07-24T00:57:06;19.90;99.90
18041;DHT22;9145;48.588;9.250;2023-07-24T00:59:34;19.80;99.90
18041;DHT22;9145;48.588;9.250;2023-07-24T01:02:02;19.70;99.90
18041;DHT22;9145;48.588;9.250;2023-07-24T01:04:29;19.70;99.90
18041;DHT22;9145;48.588;9.250;2023-07-24T01:06:55;19.80;99.90
18041;DHT22;9145;48.588;9.250;2023-07-24T01:09:22;19.80;99.90
18041;DHT22;9145;48.588;9.250;2023-07-24T01:11:52;19.80;99.90
18041;DHT22;9145;48.588;9.250;2023-07-24T01:14:24;19.80;99.90
18041;DHT22;9145;48.588;9.250;2023-07-24T01:16:55;19.60;99.90
18041;DHT22;9145;48.588;9.250;2023-07-24T01:19:35;19.60;99.90
18041;DHT22;9145;48.588;9.250;2023-07-24T01:22:10;19.50;99.90
18041;DHT22;9145;48.588;9.250;2023-07-24T01:24:48;19.40;99.90
18041;DHT22;9145;48.588;9.250;2023-07-24T01:27:23;19.30;99.90
18041;DHT22;9145;48.588;9.250;2023-07-24T01:29:50;19.30;99.90
18041;DHT22;9145;48.588;9.250;2023-07-24T01:32:18;19.20;99.90
18041;DHT22;9145;48.588;9.250;2023-07-24T01:34:45;19.10;99.90
18041;DHT22;9145;48.588;9.250;2023-07-24T01:37:12;19.10;99.90
18041;DHT22;9145;48.588;9.250;2023-07-24T01:39:40;19.10;99.90
18041;DHT22;9145;48.588;9.250;2023-07-24T01:42:08;19.10;99.90
18041;DHT22;9145;48.588;9.250;2023-07-24T01:44:37;19.10;99.90
18041;DHT22;9145;48.588;9.250;2023-07-24T01:47:04;19.10;99.90
18041;DHT22;9145;48.588;9.250;2023-07-24T01:49:30;19.00;99.90
18041;DHT22;9145;48.588;9.250;2023-07-24T01:51:57;19.10;99.90
18041;DHT22;9145;48.588;9.250;2023-07-24T01:54:24;19.20;99.90
18041;DHT22;9145;48.588;9.250;2023-07-24T01:56:52;19.20;99.90
18041;DHT22;9145;48.588;9.250;2023-07-24T01:59:19;19.20;99.90
18041;DHT22;9145;48.588;9.250;2023-07-24T02:01:47;19.30;99.90
18041;DHT22;9145;48.588;9.250;2023-07-24T02:04:14;19.30;99.90
18041;DHT22;9145;48.588;9.250;2023-07-24T02:06:41;19.40;99.90
18041;DHT22;9145;48.588;9.250;2023-07-24T02:09:07;19.30;99.90
18041;DHT22;9145;48.588;9.250;2023-07-24T02:11:34;19.20;99.90
18041;DHT22;9145;48.588;9.250;2023-07-24T02:14:01;19.20;99.90
18041;DHT22;9145;48.588;9.250;2023-07-24T02:16:28;19.20;99.90
18041;DHT22;9145;48.588;9.250;2023-07-24T02:18:56;19.20;99.90
18041;DHT22;9145;48.588;9.250;2023-07-24T02:21:23;19.20;99.90
18041;DHT22;9145;48.588;9.250;2023-07-24T02:23:49;19.20;99.90
18041;DHT22;9145;48.588;9.250;2023-07-24T02:26:16;19.10;99.90
18041;DHT22;9145;48.588;9.250;2023-07-24T02:28:43;19.00;99.90
18041;DHT22;9145;48.588;9.250;2023-07-24T02:31:11;19.00;99.90
18041;DHT22;9145;48.588;9.250;2023-07-24T02:33:37;19.00;99.90
18041;DHT22;9145;48.588;9.250;2023-07-24T02:36:06;18.90;99.90
18041;DHT22;9145;48.588;9.250;2023-07-24T02:38:32;18.90;99.90
18041;DHT22;9145;48.588;9.250;2023-07-24T02:40:59;19.00;99.90
18041;DHT22;9145;48.588;9.250;2023-07-24T02:43:26;19.00;99.90
18041;DHT22;9145;48.588;9.250;2023-07-24T02:45:53;18.90;99.90
18041;DHT22;9145;48.588;9.250;2023-07-24T02:48:20;18.80;99.90
18041;DHT22;9145;48.588;9.250;2023-07-24T02:50:47;18.70;99.90
18041;DHT22;9145;48.588;9.250;2023-07-24T02:53:15;18.70;99.90
18041;DHT22;9145;48.588;9.250;2023-07-24T02:55:43;18.60;99.90
18041;DHT22;9145;48.588;9.250;2023-07-24T02:58:11;18.60;99.90
18041;DHT22;9145;48.588;9.250;2023-07-24T03:00:38;18.50;99.90
18041;DHT22;9145;48.588;9.250;2023-07-24T03:03:05;18.40;99.90
18041;DHT22;9145;48.588;9.250;2023-07-24T03:05:34;18.30;99.90
18041;DHT22;9145;48.588;9.250;2023-07-24T03:08:00;18.20;99.90
18041;DHT22;9145;48.588;9.250;2023-07-24T03:10:29;18.20;99.90
18041;DHT22;9145;48.588;9.250;2023-07-24T03:12:55;18.40;99.90
18041;DHT22;9145;48.588;9.250;2023-07-24T03:15:22;18.50;99.90
18041;DHT22;9145;48.588;9.250;2023-07-24T03:17:49;18.50;99.90
18041;DHT22;9145;48.588;9.250;2023-07-24T03:20:17;18.60;99.90
18041;DHT22;9145;48.588;9.250;2023-07-24T03:22:45;18.60;99.90
18041;DHT22;9145;48.588;9.250;2023-07-24T03:25:12;18.70;99.90
18041;DHT22;9145;48.588;9.250;2023-07-24T03:27:41;18.70;99.90
18041;DHT22;9145;48.588;9.250;2023-07-24T03:30:08;18.60;99.90
18041;DHT22;9145;48.588;9.250;2023-07-24T03:32:36;18.50;99.90
18041;DHT22;9145;48.588;9.250;2023-07-24T03:35:03;18.30;99.90
18041;DHT22;9145;48.588;9.250;2023-07-24T03:37:30;18.20;99.90
18041;DHT22;9145;48.588;9.250;2023-07-24T03:39:57;18.10;99.90
18041;DHT22;9145;48.588;9.250;2023-07-24T03:42:25;18.00;99.90
18041;DHT22;9145;48.588;9.250;2023-07-24T03:44:54;18.00;99.90
18041;DHT22;9145;48.588;9.250;2023-07-24T03:47:21;18.10;99.90
18041;DHT22;9145;48.588;9.250;2023-07-24T03:49:48;18.10;99.90
18041;DHT22;9145;48.588;9.250;2023-07-24T03:52:15;18.10;99.90
18041;DHT22;9145;48.588;9.250;2023-07-24T03:54:42;18.00;99.90
18041;DHT22;9145;48.588;9.250;2023-07-24T03:57:09;17.90;99.90
18041;DHT22;9145;48.588;9.250;2023-07-24T03:59:36;18.00;99.90
18041;DHT22;9145;48.588;9.250;2023-07-24T04:02:04;18.10;99.90
18041;DHT22;9145;48.588;9.250;2023-07-24T04:04:31;18.00;99.90
18041;DHT22;9145;48.588;9.250;2023-07-24T04:06:59;17.90;99.90
18041;DHT22;9145;48.588;9.250;2023-07-24T04:09:26;17.90;99.90
18041;DHT22;9145;48.588;9.250;2023-07-24T04:11:52;17.80;99.90
18041;DHT22;9145;48.588;9.250;2023-07-24T04:14:19;17.70;99.90
18041;DHT22;9145;48.588;9.250;2023-07-24T04:16:46;17.70;99.90
18041;DHT22;9145;48.588;9.250;2023-07-24T04:19:14;17.70;99.90
18041;DHT22;9145;48.588;9.250;2023-07-24T04:21:41;17.80;99.90
18041;DHT22;9145;48.588;9.250;2023-07-24T04:24:08;17.90;99.90
18041;DHT22;9145;48.588;9.250;2023-07-24T04:26:35;18.00;99.90
18041;DHT22;9145;48.588;9.250;2023-07-24T04:29:01;18.10;99.90
18041;DHT22;9145;48.588;9.250;2023-07-24T04:31:28;18.20;99.90
18041;DHT22;9145;48.588;9.250;2023-07-24T04:33:55;18.30;99.90
18041;DHT22;9145;48.588;9.250;2023-07-24T04:36:23;18.30;99.90
18041;DHT22;9145;48.588;9.250;2023-07-24T04:38:50;18.30;99.90
18041;DHT22;9145;48.588;9.250;2023-07-24T04:41:17;18.30;99.90
18041;DHT22;9145;48.588;9.250;2023-07-24T04:43:44;18.20;99.90
18041;DHT22;9145;48.588;9.250;2023-07-24T04:46:10;18.10;99.90
18041;DHT22;9145;48.588;9.250;2023-07-24T04:48:37;18.10;99.90
18041;DHT22;9145;48.588;9.250;2023-07-24T04:51:04;18.10;99.90
18041;DHT22;9145;48.588;9.250;2023-07-24T04:53:32;18.10;99.90
18041;DHT22;9145;48.588;9.250;2023-07-24T04:55:59;18.10;99.90
18041;DHT22;9145;48.588;9.250;2023-07-24T04:58:26;18.10;99.90
18041;DHT22;9145;48.588;9.250;2023-07-24T05:00:53;18.10;99.90
18041;DHT22;9145;48.588;9.250;2023-07-24T05:03:19;18.20;99.90
18041;DHT22;9145;48.588;9.250;2023-07-24T05:05:48;18.20;99.90
18041;DHT22;9145;48.588;9.250;2023-07-24T05:08:16;18.20;99.90
18041;DHT22;9145;48.588;9.250;2023-07-24T05:10:44;18.20;99.90
18041;DHT22;9145;48.588;9.250;2023-07-24T05:13:11;18.30;99.90
18041;DHT22;9145;48.588;9.250;2023-07-24T05:15:37;18.30;99.90
18041;DHT22;9145;48.588;9.250;2023-07-24T05:18:04;18.40;99.90
18041;DHT22;9145;48.588;9.250;2023-07-24T05:20:31;18.40;99.90
18041;DHT22;9145;48.588;9.250;2023-07-24T05:22:58;18.50;99.90
18041;DHT22;9145;48.588;9.250;2023-07-24T05:25:25;18.50;99.90
18041;DHT22;9145;48.588;9.250;2023-07-24T05:27:53;18.60;99.90
18041;DHT22;9145;48.588;9.250;2023-07-24T05:30:19;18.60;99.90
18041;DHT22;9145;48.588;9.250;2023-07-24T05:32:46;18.50;99.90
18041;DHT22;9145;48.588;9.250;2023-07-24T05:35:13;18.50;99.90
18041;DHT22;9145;48.588;9.250;2023-07-24T05:37:40;18.60;99.90
18041;DHT22;9145;48.588;9.250;2023-07-24T05:40:08;18.80;99.90
18041;DHT22;9145;48.588;9.250;2023-07-24T05:42:35;18.90;99.90
18041;DHT22;9145;48.588;9.250;2023-07-24T05:45:09;18.90;99.90
18041;DHT22;9145;48.588;9.250;2023-07-24T05:47:36;18.90;99.90
18041;DHT22;9145;48.588;9.250;2023-07-24T05:50:03;19.00;99.90
18041;DHT22;9145;48.588;9.250;2023-07-24T05:52:30;19.00;99.90
18041;DHT22;9145;48.588;9.250;2023-07-24T05:54:57;18.90;99.90
18041;DHT22;9145;48.588;9.250;2023-07-24T05:57:24;18.90;99.90
18041;DHT22;9145;48.588;9.250;2023-07-24T05:59:51;18.80;99.90
18041;DHT22;9145;48.588;9.250;2023-07-24T06:02:19;18.80;99.90
18041;DHT22;9145;48.588;9.250;2023-07-24T06:04:46;18.80;99.90
18041;DHT22;9145;48.588;9.250;2023-07-24T06:07:12;18.70;99.90
18041;DHT22;9145;48.588;9.250;2023-07-24T06:09:39;18.60;99.90
18041;DHT22;9145;48.588;9.250;2023-07-24T06:12:07;18.60;99.90
18041;DHT22;9145;48.588;9.250;2023-07-24T06:14:33;18.60;99.90
18041;DHT22;9145;48.588;9.250;2023-07-24T06:17:00;18.60;99.90
18041;DHT22;9145;48.588;9.250;2023-07-24T06:19:28;18.60;99.90
18041;DHT22;9145;48.588;9.250;2023-07-24T06:21:55;18.60;99.90
18041;DHT22;9145;48.588;9.250;2023-07-24T06:24:22;18.50;99.90
18041;DHT22;9145;48.588;9.250;2023-07-24T06:26:49;18.50;99.90
18041;DHT22;9145;48.588;9.250;2023-07-24T06:29:16;18.50;99.90
18041;DHT22;9145;48.588;9.250;2023-07-24T06:31:43;18.60;99.90
18041;DHT22;9145;48.588;9.250;2023-07-24T06:34:10;18.50;99.90
18041;DHT22;9145;48.588;9.250;2023-07-24T06:36:38;18.60;99.90
18041;DHT22;9145;48.588;9.250;2023-07-24T06:39:05;18.50;99.90
18041;DHT22;9145;48.588;9.250;2023-07-24T06:41:31;18.60;99.90
18041;DHT22;9145;48.588;9.250;2023-07-24T06:43:58;18.60;99.90
18041;DHT22;9145;48.588;9.250;2023-07-24T06:46:25;18.70;99.90
18041;DHT22;9145;48.588;9.250;2023-07-24T06:48:52;18.80;99.90
18041;DHT22;9145;48.588;9.250;2023-07-24T06:51:18;18.90;99.90
18041;DHT22;9145;48.588;9.250;2023-07-24T06:53:47;19.00;99.90
18041;DHT22;9145;48.588;9.250;2023-07-24T06:56:13;19.10;99.90
18041;DHT22;9145;48.588;9.250;2023-07-24T06:58:40;19.20;99.90
18041;DHT22;9145;48.588;9.250;2023-07-24T07:01:07;19.40;99.90
18041;DHT22;9145;48.588;9.250;2023-07-24T07:03:34;19.50;99.90
18041;DHT22;9145;48.588;9.250;2023-07-24T07:06:01;19.70;99.90
18041;DHT22;9145;48.588;9.250;2023-07-24T07:08:30;19.90;99.90
18041;DHT22;9145;48.588;9.250;2023-07-24T07:10:59;20.00;99.90
18041;DHT22;9145;48.588;9.250;2023-07-24T07:13:26;20.10;99.90
18041;DHT22;9145;48.588;9.250;2023-07-24T07:15:53;20.20;99.90
18041;DHT22;9145;48.588;9.250;2023-07-24T07:18:20;20.20;99.90
18041;DHT22;9145;48.588;9.250;2023-07-24T07:20:47;20.30;99.90
18041;DHT22;9145;48.588;9.250;2023-07-24T07:23:14;20.20;99.90
18041;DHT22;9145;48.588;9.250;2023-07-24T07:25:41;20.20;99.90
18041;DHT22;9145;48.588;9.250;2023-07-24T07:28:10;20.20;99.90
18041;DHT22;9145;48.588;9.250;2023-07-24T07:30:36;20.30;99.90
18041;DHT22;9145;48.588;9.250;2023-07-24T07:33:03;20.60;99.90
18041;DHT22;9145;48.588;9.250;2023-07-24T07:35:31;20.70;99.90
18041;DHT22;9145;48.588;9.250;2023-07-24T07:37:58;20.80;99.90
18041;DHT22;9145;48.588;9.250;2023-07-24T07:40:25;21.00;99.90
18041;DHT22;9145;48.588;9.250;2023-07-24T07:42:52;21.10;99.90
18041;DHT22;9145;48.588;9.250;2023-07-24T07:45:21;21.30;99.90
18041;DHT22;9145;48.588;9.250;2023-07-24T07:47:48;21.40;99.90
18041;DHT22;9145;48.588;9.250;2023-07-24T07:50:14;21.50;99.90
18041;DHT22;9145;48.588;9.250;2023-07-24T07:52:41;21.50;99.90
18041;DHT22;9145;48.588;9.250;2023-07-24T07:55:08;21.50;99.90
18041;DHT22;9145;48.588;9.250;2023-07-24T07:57:36;21.60;99.90
18041;DHT22;9145;48.588;9.250;2023-07-24T08:00:04;21.50;99.90
18041;DHT22;9145;48.588;9.250;2023-07-24T08:02:33;21.50;99.90
18041;DHT22;9145;48.588;9.250;2023-07-24T08:05:00;21.50;99.90
18041;DHT22;9145;48.588;9.250;2023-07-24T08:07:26;21.50;99.90
18041;DHT22;9145;48.588;9.250;2023-07-24T08:09:53;21.40;99.90
18041;DHT22;9145;48.588;9.250;2023-07-24T08:12:21;21.30;99.90
18041;DHT22;9145;48.588;9.250;2023-07-24T08:14:48;21.30;99.90
18041;DHT22;9145;48.588;9.250;2023-07-24T08:17:15;21.20;99.90
18041;DHT22;9145;48.588;9.250;2023-07-24T08:19:43;21.30;99.90
18041;DHT22;9145;48.588;9.250;2023-07-24T08:22:10;21.30;99.90
18041;DHT22;9145;48.588;9.250;2023-07-24T08:24:37;21.30;99.90
18041;DHT22;9145;48.588;9.250;2023-07-24T08:27:04;21.40;99.90
18041;DHT22;9145;48.588;9.250;2023-07-24T08:29:31;21.50;99.90
18041;DHT22;9145;48.588;9.250;2023-07-24T08:31:58;21.60;99.90
18041;DHT22;9145;48.588;9.250;2023-07-24T08:34:25;21.70;99.90
18041;DHT22;9145;48.588;9.250;2023-07-24T08:36:53;21.70;99.90
18041;DHT22;9145;48.588;9.250;2023-07-24T08:39:20;21.70;99.90
18041;DHT22;9145;48.588;9.250;2023-07-24T08:41:47;21.80;99.90
18041;DHT22;9145;48.588;9.250;2023-07-24T08:44:14;21.70;99.90
18041;DHT22;9145;48.588;9.250;2023-07-24T08:46:42;21.80;99.90
18041;DHT22;9145;48.588;9.250;2023-07-24T08:49:11;21.70;99.90
18041;DHT22;9145;48.588;9.250;2023-07-24T08:51:40;21.80;99.90
18041;DHT22;9145;48.588;9.250;2023-07-24T08:54:09;21.80;99.90
18041;DHT22;9145;48.588;9.250;2023-07-24T08:56:36;21.80;99.90
18041;DHT22;9145;48.588;9.250;2023-07-24T08:59:05;21.80;99.90
18041;DHT22;9145;48.588;9.250;2023-07-24T09:01:32;21.90;99.90
18041;DHT22;9145;48.588;9.250;2023-07-24T09:03:59;21.90;99.90
18041;DHT22;9145;48.588;9.250;2023-07-24T09:06:26;21.80;99.90
18041;DHT22;9145;48.588;9.250;2023-07-24T09:08:54;21.90;99.90
18041;DHT22;9145;48.588;9.250;2023-07-24T09:11:22;22.00;99.90
18041;DHT22;9145;48.588;9.250;2023-07-24T09:13:49;22.00;99.90
18041;DHT22;9145;48.588;9.250;2023-07-24T09:16:23;22.10;99.90
18041;DHT22;9145;48.588;9.250;2023-07-24T09:18:50;22.20;99.90
18041;DHT22;9145;48.588;9.250;2023-07-24T09:21:27;22.30;99.90
18041;DHT22;9145;48.588;9.250;2023-07-24T09:23:55;22.40;99.90
18041;DHT22;9145;48.588;9.250;2023-07-24T09:26:23;22.40;99.90
18041;DHT22;9145;48.588;9.250;2023-07-24T09:28:53;22.40;99.90
18041;DHT22;9145;48.588;9.250;2023-07-24T09:31:20;22.30;99.90
18041;DHT22;9145;48.588;9.250;2023-07-24T09:33:47;22.30;99.90
18041;DHT22;9145;48.588;9.250;2023-07-24T09:36:14;22.30;99.90
18041;DHT22;9145;48.588;9.250;2023-07-24T09:38:41;22.30;99.90
18041;DHT22;9145;48.588;9.250;2023-07-24T09:41:08;22.10;99.90
18041;DHT22;9145;48.588;9.250;2023-07-24T09:43:38;22.10;99.90
18041;DHT22;9145;48.588;9.250;2023-07-24T09:46:06;22.10;99.90
18041;DHT22;9145;48.588;9.250;2023-07-24T09:48:34;22.00;99.90
18041;DHT22;9145;48.588;9.250;2023-07-24T09:51:01;22.00;99.90
18041;DHT22;9145;48.588;9.250;2023-07-24T09:53:33;22.00;99.90
18041;DHT22;9145;48.588;9.250;2023-07-24T09:56:02;22.00;99.90
18041;DHT22;9145;48.588;9.250;2023-07-24T09:58:32;21.90;99.90
18041;DHT22;9145;48.588;9.250;2023-07-24T10:01:07;21.90;99.90
18041;DHT22;9145;48.588;9.250;2023-07-24T10:03:37;21.80;99.90
18041;DHT22;9145;48.588;9.250;2023-07-24T10:06:05;21.70;99.90
18041;DHT22;9145;48.588;9.250;2023-07-24T10:08:32;21.50;99.90
18041;DHT22;9145;48.588;9.250;2023-07-24T10:10:59;21.30;99.90
18041;DHT22;9145;48.588;9.250;2023-07-24T10:13:26;21.30;99.90
18041;DHT22;9145;48.588;9.250;2023-07-24T10:15:54;21.30;99.90
18041;DHT22;9145;48.588;9.250;2023-07-24T10:18:28;21.20;99.90
18041;DHT22;9145;48.588;9.250;2023-07-24T10:21:00;21.10;99.90
18041;DHT22;9145;48.588;9.250;2023-07-24T10:23:27;21.10;99.90
18041;DHT22;9145;48.588;9.250;2023-07-24T10:25:54;21.10;99.90
18041;DHT22;9145;48.588;9.250;2023-07-24T10:28:30;21.10;99.90
18041;DHT22;9145;48.588;9.250;2023-07-24T10:30:57;21.00;99.90
18041;DHT22;9145;48.588;9.250;2023-07-24T10:33:28;21.00;99.90
18041;DHT22;9145;48.588;9.250;2023-07-24T10:36:06;20.90;99.90
18041;DHT22;9145;48.588;9.250;2023-07-24T10:38:36;20.90;99.90
18041;DHT22;9145;48.588;9.250;2023-07-24T10:41:04;20.70;99.90
18041;DHT22;9145;48.588;9.250;2023-07-24T10:43:40;20.70;99.90
18041;DHT22;9145;48.588;9.250;2023-07-24T10:46:07;20.60;99.90
18041;DHT22;9145;48.588;9.250;2023-07-24T10:48:36;20.40;99.90
18041;DHT22;9145;48.588;9.250;2023-07-24T10:51:06;20.40;99.90
18041;DHT22;9145;48.588;9.250;2023-07-24T10:53:35;20.20;99.90
18041;DHT22;9145;48.588;9.250;2023-07-24T10:56:02;20.10;99.90
18041;DHT22;9145;48.588;9.250;2023-07-24T10:58:29;20.10;99.90
18041;DHT22;9145;48.588;9.250;2023-07-24T11:00:57;20.00;99.90
18041;DHT22;9145;48.588;9.250;2023-07-24T11:03:25;19.90;99.90
18041;DHT22;9145;48.588;9.250;2023-07-24T11:05:54;19.90;99.90
18041;DHT22;9145;48.588;9.250;2023-07-24T11:08:21;19.80;99.90
18041;DHT22;9145;48.588;9.250;2023-07-24T11:10:49;19.80;99.90
18041;DHT22;9145;48.588;9.250;2023-07-24T11:13:16;19.80;99.90
18041;DHT22;9145;48.588;9.250;2023-07-24T11:15:43;19.80;99.90
18041;DHT22;9145;48.588;9.250;2023-07-24T11:18:10;19.90;99.90
18041;DHT22;9145;48.588;9.250;2023-07-24T11:20:43;19.90;99.90
18041;DHT22;9145;48.588;9.250;2023-07-24T11:23:11;19.90;99.90
18041;DHT22;9145;48.588;9.250;2023-07-24T11:25:38;19.90;99.90
18041;DHT22;9145;48.588;9.250;2023-07-24T11:28:06;20.00;99.90
18041;DHT22;9145;48.588;9.250;2023-07-24T11:30:33;20.00;99.90
18041;DHT22;9145;48.588;9.250;2023-07-24T11:33:02;20.00;99.90
18041;DHT22;9145;48.588;9.250;2023-07-24T11:35:29;19.90;99.90
18041;DHT22;9145;48.588;9.250;2023-07-24T11:37:56;20.00;99.90
18041;DHT22;9145;48.588;9.250;2023-07-24T11:40:32;20.30;99.90
18041;DHT22;9145;48.588;9.250;2023-07-24T11:42:59;20.70;99.90
18041;DHT22;9145;48.588;9.250;2023-07-24T11:45:27;21.00;99.90
18041;DHT22;9145;48.588;9.250;2023-07-24T11:47:53;21.30;99.90
18041;DHT22;9145;48.588;9.250;2023-07-24T11:50:22;21.60;99.90
18041;DHT22;9145;48.588;9.250;2023-07-24T11:52:50;22.00;99.90
18041;DHT22;9145;48.588;9.250;2023-07-24T11:55:19;22.30;99.90
18041;DHT22;9145;48.588;9.250;2023-07-24T11:57:57;22.50;99.90
18041;DHT22;9145;48.588;9.250;2023-07-24T12:00:24;22.60;99.90
18041;DHT22;9145;48.588;9.250;2023-07-24T12:02:51;22.60;99.90
18041;DHT22;9145;48.588;9.250;2023-07-24T12:05:18;22.70;99.90
18041;DHT22;9145;48.588;9.250;2023-07-24T12:07:45;23.00;99.90
18041;DHT22;9145;48.588;9.250;2023-07-24T12:10:13;23.00;99.90
18041;DHT22;9145;48.588;9.250;2023-07-24T12:12:42;23.10;99.90
18041;DHT22;9145;48.588;9.250;2023-07-24T12:15:11;23.20;99.90
18041;DHT22;9145;48.588;9.250;2023-07-24T12:17:38;23.50;99.90
18041;DHT22;9145;48.588;9.250;2023-07-24T12:20:07;23.40;99.90
18041;DHT22;9145;48.588;9.250;2023-07-24T12:22:35;23.40;99.90
18041;DHT22;9145;48.588;9.250;2023-07-24T12:25:02;23.50;99.90
18041;DHT22;9145;48.588;9.250;2023-07-24T12:27:29;23.30;99.90
18041;DHT22;9145;48.588;9.250;2023-07-24T12:29:56;23.40;99.90
18041;DHT22;9145;48.588;9.250;2023-07-24T12:32:24;23.50;99.90
18041;DHT22;9145;48.588;9.250;2023-07-24T12:34:52;23.50;99.90
18041;DHT22;9145;48.588;9.250;2023-07-24T12:37:19;23.60;99.90
18041;DHT22;9145;48.588;9.250;2023-07-24T12:39:47;23.40;99.90
18041;DHT22;9145;48.588;9.250;2023-07-24T12:42:14;23.20;99.90
18041;DHT22;9145;48.588;9.250;2023-07-24T12:44:42;23.10;99.90
18041;DHT22;9145;48.588;9.250;2023-07-24T12:47:10;23.20;99.90
18041;DHT22;9145;48.588;9.250;2023-07-24T12:49:38;23.10;99.90
18041;DHT22;9145;48.588;9.250;2023-07-24T12:52:05;23.20;99.90
18041;DHT22;9145;48.588;9.250;2023-07-24T12:54:33;23.20;99.90
18041;DHT22;9145;48.588;9.250;2023-07-24T12:57:00;23.10;99.90
18041;DHT22;9145;48.588;9.250;2023-07-24T12:59:27;23.20;99.90
18041;DHT22;9145;48.588;9.250;2023-07-24T13:01:53;23.20;99.90
18041;DHT22;9145;48.588;9.250;2023-07-24T13:04:21;23.40;99.90
18041;DHT22;9145;48.588;9.250;2023-07-24T13:06:50;23.50;99.90
18041;DHT22;9145;48.588;9.250;2023-07-24T13:09:18;23.60;99.90
18041;DHT22;9145;48.588;9.250;2023-07-24T13:11:44;23.70;99.90
18041;DHT22;9145;48.588;9.250;2023-07-24T13:14:14;23.80;99.90
18041;DHT22;9145;48.588;9.250;2023-07-24T13:16:40;24.20;99.90
18041;DHT22;9145;48.588;9.250;2023-07-24T13:19:07;24.60;99.90
18041;DHT22;9145;48.588;9.250;2023-07-24T13:21:34;24.20;99.90
18041;DHT22;9145;48.588;9.250;2023-07-24T13:24:02;24.00;99.90
18041;DHT22;9145;48.588;9.250;2023-07-24T13:26:29;23.90;99.90
18041;DHT22;9145;48.588;9.250;2023-07-24T13:28:56;23.80;99.90
18041;DHT22;9145;48.588;9.250;2023-07-24T13:31:23;23.70;99.90
18041;DHT22;9145;48.588;9.250;2023-07-24T13:33:50;23.70;99.90
18041;DHT22;9145;48.588;9.250;2023-07-24T13:36:16;23.50;99.90
18041;DHT22;9145;48.588;9.250;2023-07-24T13:38:43;23.20;99.90
18041;DHT22;9145;48.588;9.250;2023-07-24T13:41:11;23.10;99.90
18041;DHT22;9145;48.588;9.250;2023-07-24T13:43:38;23.00;99.90
18041;DHT22;9145;48.588;9.250;2023-07-24T13:46:05;23.00;99.90
18041;DHT22;9145;48.588;9.250;2023-07-24T13:48:33;22.90;99.90
18041;DHT22;9145;48.588;9.250;2023-07-24T13:51:00;22.90;99.90
18041;DHT22;9145;48.588;9.250;2023-07-24T13:53:27;23.00;99.90
18041;DHT22;9145;48.588;9.250;2023-07-24T13:55:54;22.90;99.90
18041;DHT22;9145;48.588;9.250;2023-07-24T13:58:22;22.80;99.90
18041;DHT22;9145;48.588;9.250;2023-07-24T14:00:49;22.70;99.90
18041;DHT22;9145;48.588;9.250;2023-07-24T14:03:16;22.80;99.90
18041;DHT22;9145;48.588;9.250;2023-07-24T14:05:42;22.60;99.90
18041;DHT22;9145;48.588;9.250;2023-07-24T14:08:09;22.60;99.90
18041;DHT22;9145;48.588;9.250;2023-07-24T14:10:37;22.60;99.90
18041;DHT22;9145;48.588;9.250;2023-07-24T14:13:04;22.50;99.90
18041;DHT22;9145;48.588;9.250;2023-07-24T14:15:32;22.60;99.90
18041;DHT22;9145;48.588;9.250;2023-07-24T14:17:59;22.70;99.90
18041;DHT22;9145;48.588;9.250;2023-07-24T14:20:25;22.60;99.90
18041;DHT22;9145;48.588;9.250;2023-07-24T14:22:52;22.60;99.90
18041;DHT22;9145;48.588;9.250;2023-07-24T14:25:19;22.70;99.90
18041;DHT22;9145;48.588;9.250;2023-07-24T14:27:46;22.70;99.90
18041;DHT22;9145;48.588;9.250;2023-07-24T14:30:13;22.80;99.90
18041;DHT22;9145;48.588;9.250;2023-07-24T14:32:41;22.80;99.90
18041;DHT22;9145;48.588;9.250;2023-07-24T14:35:08;22.70;99.90
18041;DHT22;9145;48.588;9.250;2023-07-24T14:37:34;22.60;99.90
18041;DHT22;9145;48.588;9.250;2023-07-24T14:40:01;22.50;99.90
18041;DHT22;9145;48.588;9.250;2023-07-24T14:42:29;22.70;99.90
18041;DHT22;9145;48.588;9.250;2023-07-24T14:44:55;22.90;99.90
18041;DHT22;9145;48.588;9.250;2023-07-24T14:47:27;23.30;99.90
18041;DHT22;9145;48.588;9.250;2023-07-24T14:49:56;23.20;99.90
18041;DHT22;9145;48.588;9.250;2023-07-24T14:52:24;23.30;99.90
18041;DHT22;9145;48.588;9.250;2023-07-24T14:54:50;23.10;99.90
18041;DHT22;9145;48.588;9.250;2023-07-24T14:57:17;23.00;99.90
18041;DHT22;9145;48.588;9.250;2023-07-24T14:59:44;22.90;99.90
18041;DHT22;9145;48.588;9.250;2023-07-24T15:02:11;22.90;99.90
18041;DHT22;9145;48.588;9.250;2023-07-24T15:04:37;22.80;99.90
18041;DHT22;9145;48.588;9.250;2023-07-24T15:07:06;22.50;99.90
18041;DHT22;9145;48.588;9.250;2023-07-24T15:09:33;22.30;99.90
18041;DHT22;9145;48.588;9.250;2023-07-24T15:11:59;22.10;99.90
18041;DHT22;9145;48.588;9.250;2023-07-24T15:14:26;21.70;99.90
18041;DHT22;9145;48.588;9.250;2023-07-24T15:16:53;21.50;99.90
18041;DHT22;9145;48.588;9.250;2023-07-24T15:19:20;21.40;99.90
18041;DHT22;9145;48.588;9.250;2023-07-24T15:21:47;22.10;99.90
18041;DHT22;9145;48.588;9.250;2023-07-24T15:24:15;22.30;99.90
18041;DHT22;9145;48.588;9.250;2023-07-24T15:26:43;22.30;99.90
18041;DHT22;9145;48.588;9.250;2023-07-24T15:29:10;22.40;99.90
18041;DHT22;9145;48.588;9.250;2023-07-24T15:31:37;22.30;99.90
18041;DHT22;9145;48.588;9.250;2023-07-24T15:34:06;22.10;99.90
18041;DHT22;9145;48.588;9.250;2023-07-24T15:36:34;21.80;99.90
18041;DHT22;9145;48.588;9.250;2023-07-24T15:39:01;21.90;99.90
18041;DHT22;9145;48.588;9.250;2023-07-24T15:41:30;22.00;99.90
18041;DHT22;9145;48.588;9.250;2023-07-24T15:43:57;21.90;99.90
18041;DHT22;9145;48.588;9.250;2023-07-24T15:46:24;21.90;99.90